createdAt,value
2022-10-12T00:00:59.376Z,57.92
2022-10-12T00:02:00.940Z,58.08
2022-10-12T00:03:02.600Z,57.93
2022-10-12T00:04:04.092Z,58.22
2022-10-12T00:05:05.630Z,58.23
2022-10-12T00:06:07.116Z,58.07
2022-10-12T00:07:08.566Z,58.00
2022-10-12T00:08:10.143Z,57.96
2022-10-12T00:09:11.714Z,58.02
2022-10-12T00:10:13.210Z,58.19
2022-10-12T00:11:15.882Z,58.20
2022-10-12T00:12:17.336Z,58.12
2022-10-12T00:13:19.361Z,58.40
2022-10-12T00:14:20.815Z,58.28
2022-10-12T00:15:22.307Z,58.07
2022-10-12T00:16:24.007Z,58.06
2022-10-12T00:17:25.497Z,58.05
2022-10-12T00:18:26.986Z,58.25
2022-10-12T00:19:28.448Z,58.00
2022-10-12T00:20:29.919Z,58.19
2022-10-12T00:21:31.510Z,58.09
2022-10-12T00:22:33.020Z,58.13
2022-10-12T00:23:34.865Z,58.07
2022-10-12T00:24:40.579Z,58.06
2022-10-12T00:25:44.468Z,58.30
2022-10-12T00:26:46.045Z,58.13
2022-10-12T00:27:47.527Z,58.00
2022-10-12T00:28:49.294Z,58.33
2022-10-12T00:29:50.919Z,58.08
2022-10-12T00:30:52.394Z,58.19
2022-10-12T00:31:53.887Z,58.16
2022-10-12T00:32:55.389Z,58.08
2022-10-12T00:33:58.893Z,58.17
2022-10-12T00:35:00.409Z,58.06
2022-10-12T00:36:10.425Z,58.16
2022-10-12T00:37:11.901Z,58.27
2022-10-12T00:38:13.400Z,58.63
2022-10-12T00:39:14.874Z,58.37
2022-10-12T00:40:16.348Z,58.38
2022-10-12T00:41:18.831Z,58.34
2022-10-12T00:42:20.964Z,58.50
2022-10-12T00:43:26.072Z,58.23
2022-10-12T00:44:53.862Z,58.49
2022-10-12T00:45:55.327Z,58.40
2022-10-12T00:46:56.783Z,58.61
2022-10-12T00:47:58.591Z,58.70
2022-10-12T00:49:04.313Z,58.39
2022-10-12T00:50:24.079Z,58.41
2022-10-12T00:51:25.539Z,58.35
2022-10-12T00:52:28.706Z,58.70
2022-10-12T00:53:32.394Z,58.84
2022-10-12T00:54:34.859Z,58.61
2022-10-12T00:55:40.112Z,58.77
2022-10-12T00:56:41.831Z,58.66
2022-10-12T00:57:46.905Z,58.52
2022-10-12T00:58:48.987Z,58.70
2022-10-12T00:59:51.876Z,58.44
2022-10-12T01:00:53.430Z,58.57
2022-10-12T01:01:54.969Z,58.67
2022-10-12T01:02:56.433Z,58.53
2022-10-12T01:03:57.896Z,58.56
2022-10-12T01:04:59.568Z,58.66
2022-10-12T01:06:01.057Z,58.39
2022-10-12T01:07:02.532Z,58.28
2022-10-12T01:08:04.049Z,58.50
2022-10-12T01:09:05.527Z,58.46
2022-10-12T01:10:07.183Z,58.27
2022-10-12T01:11:08.635Z,58.36
2022-10-12T01:12:10.194Z,58.47
2022-10-12T01:13:12.577Z,58.56
2022-10-12T01:14:14.072Z,58.37
2022-10-12T01:15:15.650Z,58.58
2022-10-12T01:16:25.363Z,58.51
2022-10-12T01:17:53.006Z,58.26
2022-10-12T01:19:23.647Z,58.35
2022-10-12T01:20:25.314Z,58.44
2022-10-12T01:21:26.775Z,58.42
2022-10-12T01:22:28.352Z,58.48
2022-10-12T01:23:29.821Z,58.29
2022-10-12T01:24:51.527Z,58.21
2022-10-12T01:26:05.589Z,58.42
2022-10-12T01:27:07.111Z,58.46
2022-10-12T01:28:27.517Z,58.48
2022-10-12T01:29:37.254Z,58.49
2022-10-12T01:30:39.866Z,58.41
2022-10-12T01:31:43.580Z,58.33
2022-10-12T01:32:47.816Z,58.22
2022-10-12T01:33:50.655Z,58.29
2022-10-12T01:35:04.099Z,58.40
2022-10-12T01:36:11.539Z,58.52
2022-10-12T01:37:24.542Z,58.12
2022-10-12T01:38:35.074Z,58.63
2022-10-12T01:39:41.531Z,58.47
2022-10-12T01:40:45.577Z,58.69
2022-10-12T01:41:47.403Z,58.48
2022-10-12T01:42:48.939Z,58.47
2022-10-12T01:43:50.616Z,58.52
2022-10-12T01:45:00.623Z,58.47
2022-10-12T01:46:06.124Z,58.38
2022-10-12T01:47:07.623Z,58.82
2022-10-12T01:48:09.092Z,58.51
2022-10-12T01:49:10.632Z,58.41
2022-10-12T01:50:12.291Z,58.72
2022-10-12T01:51:16.469Z,58.87
2022-10-12T01:52:28.009Z,58.41
2022-10-12T01:53:33.575Z,58.53
2022-10-12T01:54:38.053Z,58.45
2022-10-12T01:55:42.328Z,58.40
2022-10-12T01:56:46.625Z,58.77
2022-10-12T01:57:54.476Z,58.69
2022-10-12T01:58:55.966Z,58.48
2022-10-12T01:59:57.403Z,58.55
2022-10-12T02:01:04.575Z,58.88
2022-10-12T02:02:11.970Z,58.85
2022-10-12T02:03:18.776Z,58.75
2022-10-12T02:04:27.811Z,58.99
2022-10-12T02:05:29.271Z,58.63
2022-10-12T02:06:33.213Z,59.00
2022-10-12T02:07:37.496Z,58.64
2022-10-12T02:08:39.264Z,58.94
2022-10-12T02:09:40.723Z,58.78
2022-10-12T02:11:02.364Z,59.35
2022-10-12T02:12:09.326Z,59.18
2022-10-12T02:13:11.703Z,59.32
2022-10-12T02:14:16.927Z,59.44
2022-10-12T02:15:18.530Z,59.27
2022-10-12T02:16:20.640Z,59.38
2022-10-12T02:17:22.771Z,59.14
2022-10-12T02:18:24.275Z,59.33
2022-10-12T02:19:26.714Z,59.30
2022-10-12T02:20:28.258Z,59.37
2022-10-12T02:21:30.627Z,59.27
2022-10-12T02:22:34.384Z,59.53
2022-10-12T02:23:35.875Z,59.51
2022-10-12T02:24:38.754Z,59.51
2022-10-12T02:25:40.588Z,59.31
2022-10-12T02:26:42.318Z,59.34
2022-10-12T02:27:44.831Z,59.22
2022-10-12T02:28:46.497Z,59.36
2022-10-12T02:29:48.019Z,59.48
2022-10-12T02:30:52.114Z,59.25
2022-10-12T02:31:56.416Z,59.60
2022-10-12T02:33:03.729Z,59.47
2022-10-12T02:34:11.813Z,59.25
2022-10-12T02:35:18.328Z,59.25
2022-10-12T02:36:23.246Z,59.32
2022-10-12T02:37:30.480Z,59.21
2022-10-12T02:38:32.997Z,59.58
2022-10-12T02:39:42.564Z,59.32
2022-10-12T02:40:46.443Z,59.30
2022-10-12T02:41:48.336Z,59.13
2022-10-12T02:43:09.333Z,59.24
2022-10-12T02:44:12.508Z,59.56
2022-10-12T02:45:14.107Z,59.43
2022-10-12T02:46:15.561Z,59.46
2022-10-12T02:47:17.070Z,59.47
2022-10-12T02:48:22.506Z,59.39
2022-10-12T02:49:24.359Z,59.13
2022-10-12T02:50:25.869Z,59.18
2022-10-12T02:51:27.678Z,59.44
2022-10-12T02:52:29.800Z,59.35
2022-10-12T02:53:31.270Z,59.22
2022-10-12T02:54:32.925Z,59.19
2022-10-12T02:55:37.876Z,59.32
2022-10-12T02:56:42.692Z,59.28
2022-10-12T02:57:44.141Z,59.44
2022-10-12T02:58:45.925Z,59.25
2022-10-12T02:59:47.446Z,59.37
2022-10-12T03:00:49.037Z,59.27
2022-10-12T03:01:50.561Z,59.15
2022-10-12T03:02:52.033Z,59.38
2022-10-12T03:03:53.492Z,59.18
2022-10-12T03:04:54.964Z,59.37
2022-10-12T03:05:56.483Z,59.33
2022-10-12T03:06:58.009Z,59.44
2022-10-12T03:07:59.479Z,59.44
2022-10-12T03:09:01.713Z,59.13
2022-10-12T03:10:03.331Z,59.21
2022-10-12T03:11:05.160Z,59.57
2022-10-12T03:12:06.815Z,59.49
2022-10-12T03:13:08.295Z,59.38
2022-10-12T03:14:12.721Z,59.46
2022-10-12T03:15:14.238Z,59.34
2022-10-12T03:16:15.689Z,59.67
2022-10-12T03:17:17.248Z,59.75
2022-10-12T03:18:19.059Z,59.80
2022-10-12T03:19:20.482Z,59.41
2022-10-12T03:20:21.947Z,59.51
2022-10-12T03:21:23.375Z,59.54
2022-10-12T03:22:24.883Z,59.76
2022-10-12T03:23:26.496Z,59.78
2022-10-12T03:24:28.033Z,59.83
2022-10-12T03:25:29.617Z,59.77
2022-10-12T03:26:31.068Z,59.81
2022-10-12T03:27:32.555Z,60.05
2022-10-12T03:28:34.115Z,60.07
2022-10-12T03:29:35.652Z,59.78
2022-10-12T03:30:37.082Z,59.90
2022-10-12T03:31:38.586Z,60.15
2022-10-12T03:32:40.116Z,60.02
2022-10-12T03:33:41.599Z,60.16
2022-10-12T03:34:43.104Z,60.13
2022-10-12T03:35:45.425Z,59.89
2022-10-12T03:36:46.878Z,60.13
2022-10-12T03:37:48.365Z,60.14
2022-10-12T03:38:49.890Z,60.46
2022-10-12T03:39:51.450Z,60.67
2022-10-12T03:40:52.943Z,60.45
2022-10-12T03:41:54.383Z,60.62
2022-10-12T03:42:55.954Z,60.37
2022-10-12T03:43:57.498Z,61.00
2022-10-12T03:44:58.946Z,60.56
2022-10-12T03:46:00.425Z,60.82
2022-10-12T03:47:01.887Z,60.69
2022-10-12T03:48:05.115Z,60.58
2022-10-12T03:49:06.898Z,60.66
2022-10-12T03:50:08.540Z,60.96
2022-10-12T03:51:10.043Z,61.07
2022-10-12T03:52:11.502Z,60.75
2022-10-12T03:53:13.116Z,61.05
2022-10-12T03:54:14.630Z,60.96
2022-10-12T03:55:16.111Z,61.00
2022-10-12T03:56:17.574Z,61.12
2022-10-12T03:57:19.039Z,61.02
2022-10-12T03:58:20.481Z,61.14
2022-10-12T03:59:22.087Z,60.94
2022-10-12T04:00:23.812Z,60.96
2022-10-12T04:01:25.854Z,61.28
2022-10-12T04:02:27.479Z,61.20
2022-10-12T04:03:28.963Z,61.09
2022-10-12T04:04:30.524Z,61.12
2022-10-12T04:05:32.014Z,61.11
2022-10-12T04:06:33.478Z,60.93
2022-10-12T04:07:35.055Z,60.66
2022-10-12T04:08:36.632Z,61.08
2022-10-12T04:09:38.137Z,60.84
2022-10-12T04:10:39.618Z,60.98
2022-10-12T04:11:41.088Z,61.02
2022-10-12T04:12:42.547Z,60.91
2022-10-12T04:13:44.020Z,60.93
2022-10-12T04:14:45.620Z,60.83
2022-10-12T04:15:47.185Z,60.80
2022-10-12T04:16:48.616Z,60.81
2022-10-12T04:17:50.051Z,60.87
2022-10-12T04:18:51.540Z,60.84
2022-10-12T04:19:53.015Z,61.08
2022-10-12T04:20:54.499Z,60.77
2022-10-12T04:21:56.003Z,60.81
2022-10-12T04:22:57.435Z,61.12
2022-10-12T04:23:58.891Z,60.76
2022-10-12T04:25:00.390Z,60.76
2022-10-12T04:26:01.907Z,60.78
2022-10-12T04:27:03.396Z,60.84
2022-10-12T04:28:04.880Z,60.90
2022-10-12T04:29:06.351Z,60.93
2022-10-12T04:30:08.103Z,60.73
2022-10-12T04:31:09.574Z,60.60
2022-10-12T04:32:12.666Z,60.79
2022-10-12T04:33:14.434Z,60.67
2022-10-12T04:34:15.995Z,60.91
2022-10-12T04:35:17.429Z,61.01
2022-10-12T04:36:18.896Z,60.60
2022-10-12T04:37:20.430Z,61.01
2022-10-12T04:38:21.896Z,60.59
2022-10-12T04:39:23.335Z,60.76
2022-10-12T04:40:24.794Z,60.79
2022-10-12T04:41:26.308Z,60.95
2022-10-12T04:42:27.864Z,60.75
2022-10-12T04:43:29.356Z,61.05
2022-10-12T04:44:32.447Z,60.74
2022-10-12T04:45:34.091Z,60.74
2022-10-12T04:46:35.564Z,60.88
2022-10-12T04:47:37.387Z,60.67
2022-10-12T04:48:39.046Z,60.58
2022-10-12T04:49:40.517Z,60.79
2022-10-12T04:50:41.990Z,60.92
2022-10-12T04:51:43.443Z,60.73
2022-10-12T04:52:44.951Z,60.57
2022-10-12T04:53:46.435Z,60.55
2022-10-12T04:54:47.951Z,60.66
2022-10-12T04:55:49.419Z,60.90
2022-10-12T04:56:50.999Z,60.75
2022-10-12T04:57:52.503Z,60.79
2022-10-12T04:58:54.020Z,60.79
2022-10-12T04:59:55.512Z,60.66
2022-10-12T05:00:57.088Z,60.97
2022-10-12T05:01:58.641Z,60.71
2022-10-12T05:03:00.116Z,60.79
2022-10-12T05:04:01.655Z,60.76
2022-10-12T05:05:03.151Z,60.70
2022-10-12T05:06:04.623Z,60.72
2022-10-12T05:07:06.126Z,60.84
2022-10-12T05:08:07.602Z,60.39
2022-10-12T05:09:13.120Z,60.85
2022-10-12T05:10:17.875Z,60.51
2022-10-12T05:11:19.632Z,60.43
2022-10-12T05:12:21.107Z,60.52
2022-10-12T05:13:22.615Z,60.75
2022-10-12T05:14:24.415Z,60.68
2022-10-12T05:15:26.248Z,60.89
2022-10-12T05:16:27.713Z,60.84
2022-10-12T05:17:29.297Z,60.84
2022-10-12T05:18:30.743Z,60.91
2022-10-12T05:19:32.216Z,60.66
2022-10-12T05:20:33.694Z,61.09
2022-10-12T05:21:35.237Z,60.82
2022-10-12T05:22:36.736Z,61.10
2022-10-12T05:23:38.443Z,60.84
2022-10-12T05:24:39.957Z,60.68
2022-10-12T05:25:41.456Z,60.83
2022-10-12T05:26:42.942Z,60.50
2022-10-12T05:27:44.427Z,60.97
2022-10-12T05:28:45.940Z,60.84
2022-10-12T05:29:47.417Z,60.87
2022-10-12T05:30:49.836Z,60.85
2022-10-12T05:31:51.338Z,60.54
2022-10-12T05:32:52.787Z,61.00
2022-10-12T05:33:54.246Z,60.63
2022-10-12T05:34:55.735Z,60.57
2022-10-12T05:35:57.193Z,60.92
2022-10-12T05:36:58.718Z,60.63
2022-10-12T05:38:00.238Z,60.73
2022-10-12T05:39:01.720Z,60.96
2022-10-12T05:40:03.452Z,60.74
2022-10-12T05:41:04.988Z,60.97
2022-10-12T05:42:06.479Z,60.88
2022-10-12T05:43:07.947Z,60.73
2022-10-12T05:44:09.491Z,61.01
2022-10-12T05:45:11.380Z,61.11
2022-10-12T05:46:14.546Z,60.68
2022-10-12T05:47:16.211Z,61.12
2022-10-12T05:48:17.691Z,60.89
2022-10-12T05:49:19.205Z,61.06
2022-10-12T05:50:21.438Z,60.83
2022-10-12T05:51:27.888Z,61.01
2022-10-12T05:52:30.292Z,60.77
2022-10-12T05:53:31.823Z,60.78
2022-10-12T05:54:33.316Z,60.97
2022-10-12T05:55:34.838Z,60.98
2022-10-12T05:56:36.315Z,60.79
2022-10-12T05:57:38.115Z,60.78
2022-10-12T05:58:39.599Z,61.25
2022-10-12T05:59:41.734Z,61.09
2022-10-12T06:00:43.227Z,61.05
2022-10-12T06:01:44.747Z,61.04
2022-10-12T06:02:46.261Z,61.06
2022-10-12T06:03:47.709Z,61.18
2022-10-12T06:04:49.243Z,60.88
2022-10-12T06:05:50.759Z,60.98
2022-10-12T06:06:52.251Z,60.91
2022-10-12T06:07:53.752Z,60.90
2022-10-12T06:08:55.199Z,60.99
2022-10-12T06:09:56.702Z,61.18
2022-10-12T06:10:58.247Z,61.11
2022-10-12T06:11:59.680Z,61.06
2022-10-12T06:13:01.397Z,61.04
2022-10-12T06:14:02.879Z,61.04
2022-10-12T06:15:04.619Z,61.08
2022-10-12T06:16:06.275Z,61.32
2022-10-12T06:17:09.590Z,61.12
2022-10-12T06:18:11.047Z,61.36
2022-10-12T06:19:12.715Z,60.92
2022-10-12T06:20:14.267Z,60.95
2022-10-12T06:22:37.481Z,60.99
2022-10-12T06:23:39.075Z,61.35
2022-10-12T06:24:40.559Z,61.08
2022-10-12T06:25:42.106Z,61.20
2022-10-12T06:26:43.540Z,61.35
2022-10-12T06:27:45.478Z,61.48
2022-10-12T06:28:47.031Z,61.57
2022-10-12T06:29:48.804Z,61.42
2022-10-12T06:30:53.449Z,61.86
2022-10-12T06:31:54.900Z,61.57
2022-10-12T06:32:56.399Z,61.87
2022-10-12T06:33:57.890Z,61.95
2022-10-12T06:34:59.382Z,61.98
2022-10-12T06:36:00.858Z,62.11
2022-10-12T06:37:02.407Z,62.06
2022-10-12T06:38:04.088Z,62.29
2022-10-12T06:39:05.556Z,62.29
2022-10-12T06:40:07.364Z,61.92
2022-10-12T06:41:08.835Z,61.58
2022-10-12T06:42:11.208Z,61.59
2022-10-12T06:43:24.261Z,61.78
2022-10-12T06:44:25.761Z,61.72
2022-10-12T06:45:27.231Z,61.99
2022-10-12T06:46:28.704Z,61.36
2022-10-12T06:47:30.205Z,61.31
2022-10-12T06:48:31.683Z,61.27
2022-10-12T06:49:33.149Z,61.56
2022-10-12T06:50:35.257Z,61.44
2022-10-12T06:51:36.687Z,61.72
2022-10-12T06:52:38.524Z,61.62
2022-10-12T06:53:40.448Z,61.59
2022-10-12T06:54:41.916Z,61.53
2022-10-12T06:55:43.470Z,61.37
2022-10-12T06:56:44.936Z,61.13
2022-10-12T06:57:46.436Z,61.35
2022-10-12T06:58:47.928Z,61.43
2022-10-12T06:59:49.608Z,61.00
2022-10-12T07:00:51.743Z,61.05
2022-10-12T07:01:53.271Z,60.64
2022-10-12T07:02:54.809Z,60.67
2022-10-12T07:04:00.567Z,60.41
2022-10-12T07:05:02.453Z,59.70
2022-10-12T07:06:10.750Z,59.60
2022-10-12T07:07:12.241Z,59.21
2022-10-12T07:08:13.710Z,59.08
2022-10-12T07:09:16.148Z,58.72
2022-10-12T07:10:17.908Z,58.96
2022-10-12T07:11:19.337Z,59.03
2022-10-12T07:12:20.875Z,58.47
2022-10-12T07:13:22.330Z,58.51
2022-10-12T07:14:23.778Z,58.12
2022-10-12T07:15:25.444Z,57.59
2022-10-12T07:16:26.923Z,57.23
2022-10-12T07:17:28.419Z,57.31
2022-10-12T07:18:29.963Z,56.83
2022-10-12T07:19:31.412Z,56.45
2022-10-12T07:20:32.903Z,56.08
2022-10-12T07:21:34.339Z,55.94
2022-10-12T07:22:35.856Z,55.33
2022-10-12T07:23:42.403Z,55.00
2022-10-12T07:24:46.640Z,54.77
2022-10-12T07:25:49.767Z,54.60
2022-10-12T07:26:51.359Z,54.22
2022-10-12T07:27:52.963Z,54.06
2022-10-12T07:28:54.464Z,53.96
2022-10-12T07:29:55.977Z,53.58
2022-10-12T07:31:00.885Z,53.14
2022-10-12T07:32:02.455Z,53.13
2022-10-12T07:33:03.963Z,52.78
2022-10-12T07:34:05.413Z,52.81
2022-10-12T07:35:07.013Z,52.47
2022-10-12T07:36:21.198Z,52.58
2022-10-12T07:37:23.497Z,52.97
2022-10-12T07:38:24.983Z,52.91
2022-10-12T07:39:26.505Z,53.08
2022-10-12T07:40:27.976Z,52.93
2022-10-12T07:41:29.452Z,52.41
2022-10-12T07:42:30.934Z,52.55
2022-10-12T07:43:33.533Z,52.91
2022-10-12T07:44:35.036Z,52.89
2022-10-12T07:45:36.784Z,53.31
2022-10-12T07:46:38.247Z,53.20
2022-10-12T07:47:40.049Z,53.75
2022-10-12T07:48:47.210Z,54.07
2022-10-12T07:49:50.540Z,53.89
2022-10-12T07:50:52.081Z,53.73
2022-10-12T07:51:53.902Z,53.91
2022-10-12T07:52:55.447Z,53.62
2022-10-12T07:53:56.892Z,53.76
2022-10-12T07:54:58.384Z,53.90
2022-10-12T07:56:02.904Z,54.11
2022-10-12T07:57:04.350Z,53.94
2022-10-12T07:58:05.798Z,53.78
2022-10-12T07:59:07.370Z,53.49
2022-10-12T08:00:09.100Z,53.11
2022-10-12T08:01:13.211Z,52.96
2022-10-12T08:02:14.761Z,52.64
2022-10-12T08:03:16.640Z,52.39
2022-10-12T08:04:18.088Z,52.05
2022-10-12T08:05:21.313Z,51.15
2022-10-12T08:06:23.506Z,50.83
2022-10-12T08:07:24.996Z,50.53
2022-10-12T08:08:26.480Z,50.06
2022-10-12T08:09:27.938Z,49.78
2022-10-12T08:10:29.390Z,49.35
2022-10-12T08:11:30.933Z,48.94
2022-10-12T08:12:32.532Z,49.09
2022-10-12T08:13:34.030Z,48.89
2022-10-12T08:14:35.482Z,48.57
2022-10-12T08:15:36.998Z,48.29
2022-10-12T08:16:38.464Z,48.49
2022-10-12T08:17:40.381Z,48.37
2022-10-12T08:18:42.159Z,47.39
2022-10-12T08:19:43.611Z,47.25
2022-10-12T08:20:45.085Z,47.00
2022-10-12T08:21:46.583Z,46.84
2022-10-12T08:22:48.060Z,46.93
2022-10-12T08:23:49.739Z,46.71
2022-10-12T08:24:51.282Z,46.23
2022-10-12T08:25:53.175Z,46.50
2022-10-12T08:26:57.941Z,46.15
2022-10-12T08:28:02.603Z,45.80
2022-10-12T08:29:04.223Z,45.76
2022-10-12T08:30:06.172Z,45.54
2022-10-12T08:31:08.518Z,45.41
2022-10-12T08:32:10.094Z,44.92
2022-10-12T08:33:12.000Z,44.71
2022-10-12T08:34:13.427Z,44.73
2022-10-12T08:35:15.085Z,44.69
2022-10-12T08:36:16.672Z,44.51
2022-10-12T08:37:18.166Z,44.36
2022-10-12T08:38:19.658Z,43.69
2022-10-12T08:39:21.229Z,43.43
2022-10-12T08:40:27.011Z,43.80
2022-10-12T08:41:37.335Z,43.20
2022-10-12T08:42:38.802Z,43.75
2022-10-12T08:43:40.240Z,43.36
2022-10-12T08:44:47.630Z,43.52
2022-10-12T08:45:58.442Z,44.20
2022-10-12T08:47:00.644Z,43.83
2022-10-12T08:48:06.642Z,44.21
2022-10-12T08:49:15.352Z,44.21
2022-10-12T08:50:27.185Z,44.35
2022-10-12T08:51:29.610Z,43.66
2022-10-12T08:52:34.747Z,43.29
2022-10-12T08:53:37.606Z,43.44
2022-10-12T08:54:40.041Z,43.20
2022-10-12T08:55:43.721Z,43.17
2022-10-12T08:56:45.196Z,43.22
2022-10-12T08:57:49.886Z,42.55
2022-10-12T08:58:51.766Z,42.28
2022-10-12T08:59:53.285Z,42.23
2022-10-12T09:00:56.907Z,41.90
2022-10-12T09:02:07.361Z,42.08
2022-10-12T09:03:29.134Z,41.97
2022-10-12T09:04:37.124Z,41.40
2022-10-12T09:05:47.592Z,41.24
2022-10-12T09:07:07.359Z,41.10
2022-10-12T09:08:16.969Z,41.01
2022-10-12T09:09:33.236Z,41.02
2022-10-12T09:10:47.512Z,41.03
2022-10-12T09:11:52.631Z,41.01
2022-10-12T09:13:09.671Z,41.33
2022-10-12T09:14:12.267Z,41.52
2022-10-12T09:15:32.707Z,41.62
2022-10-12T09:16:35.067Z,41.68
2022-10-12T09:17:41.006Z,41.98
2022-10-12T09:18:44.007Z,42.20
2022-10-12T09:19:45.464Z,41.90
2022-10-12T09:20:50.450Z,42.15
2022-10-12T09:21:51.926Z,42.13
2022-10-12T09:23:12.413Z,42.64
2022-10-12T09:24:15.829Z,42.52
2022-10-12T09:25:17.991Z,42.95
2022-10-12T09:26:20.628Z,42.91
2022-10-12T09:27:22.472Z,42.91
2022-10-12T09:28:27.818Z,42.42
2022-10-12T09:29:31.157Z,41.99
2022-10-12T09:30:32.621Z,42.29
2022-10-12T09:31:39.664Z,42.08
2022-10-12T09:32:47.062Z,42.39
2022-10-12T09:33:49.280Z,42.34
2022-10-12T09:34:50.714Z,42.34
2022-10-12T09:35:52.192Z,41.36
2022-10-12T09:36:55.526Z,41.41
2022-10-12T09:37:56.982Z,41.05
2022-10-12T09:38:58.716Z,41.20
2022-10-12T09:40:00.190Z,41.02
2022-10-12T09:41:01.742Z,40.50
2022-10-12T09:42:03.398Z,40.30
2022-10-12T09:43:04.914Z,39.99
2022-10-12T09:44:06.418Z,40.65
2022-10-12T09:45:14.996Z,40.37
2022-10-12T09:46:16.756Z,40.81
2022-10-12T09:47:21.110Z,40.59
2022-10-12T09:48:23.921Z,40.19
2022-10-12T09:49:44.386Z,40.07
2022-10-12T09:50:48.009Z,40.01
2022-10-12T09:51:51.056Z,39.41
2022-10-12T09:52:55.146Z,39.25
2022-10-12T09:53:58.913Z,38.73
2022-10-12T09:55:03.566Z,39.11
2022-10-12T09:56:16.683Z,39.04
2022-10-12T09:57:19.318Z,38.65
2022-10-12T09:58:21.123Z,38.67
2022-10-12T09:59:29.161Z,38.20
2022-10-12T10:00:33.768Z,38.57
2022-10-12T10:01:35.578Z,38.35
2022-10-12T10:02:46.736Z,37.90
2022-10-12T10:03:48.843Z,38.00
2022-10-12T10:04:50.525Z,37.81
2022-10-12T10:06:01.975Z,38.22
2022-10-12T10:07:23.014Z,38.08
2022-10-12T10:08:24.506Z,38.05
2022-10-12T10:09:35.264Z,37.72
2022-10-12T10:10:36.848Z,37.38
2022-10-12T10:11:38.298Z,37.70
2022-10-12T10:12:55.871Z,37.56
2022-10-12T10:13:57.727Z,37.71
2022-10-12T10:14:59.230Z,37.22
2022-10-12T10:16:04.672Z,36.90
2022-10-12T10:17:06.136Z,36.73
2022-10-12T10:18:08.282Z,36.81
2022-10-12T10:19:11.767Z,36.78
2022-10-12T10:20:13.658Z,36.43
2022-10-12T10:21:25.129Z,36.76
2022-10-12T10:22:26.628Z,37.11
2022-10-12T10:23:28.231Z,37.08
2022-10-12T10:24:30.314Z,37.26
2022-10-12T10:25:31.927Z,37.16
2022-10-12T10:26:52.015Z,37.14
2022-10-12T10:28:19.302Z,36.81
2022-10-12T10:29:26.585Z,35.74
2022-10-12T10:30:35.181Z,35.77
2022-10-12T10:31:39.527Z,35.96
2022-10-12T10:32:41.344Z,36.45
2022-10-12T10:33:43.006Z,36.17
2022-10-12T10:34:44.458Z,35.89
2022-10-12T10:36:15.171Z,35.96
2022-10-12T10:37:19.928Z,35.81
2022-10-12T10:38:21.458Z,36.24
2022-10-12T10:39:24.551Z,36.53
2022-10-12T10:40:26.027Z,36.10
2022-10-12T10:41:32.295Z,35.56
2022-10-12T10:42:34.170Z,36.28
2022-10-12T10:43:35.820Z,36.13
2022-10-12T10:44:37.371Z,36.07
2022-10-12T10:45:49.190Z,36.48
2022-10-12T10:46:50.730Z,36.13
2022-10-12T10:47:56.372Z,36.47
2022-10-12T10:49:01.574Z,36.85
2022-10-12T10:50:03.194Z,37.01
2022-10-12T10:51:05.168Z,37.18
2022-10-12T10:52:26.942Z,37.55
2022-10-12T10:53:32.243Z,37.48
2022-10-12T10:54:34.847Z,37.11
2022-10-12T10:55:44.075Z,36.78
2022-10-12T10:56:46.796Z,36.72
2022-10-12T10:58:06.038Z,37.11
2022-10-12T10:59:16.697Z,36.99
2022-10-12T11:02:02.061Z,36.63
2022-10-12T11:03:07.905Z,36.44
2022-10-12T11:04:11.070Z,36.87
2022-10-12T11:05:30.523Z,36.88
2022-10-12T11:06:50.586Z,36.94
2022-10-12T11:07:55.929Z,36.75
2022-10-12T11:09:00.600Z,37.34
2022-10-12T11:10:03.741Z,37.90
2022-10-12T11:11:15.660Z,38.32
2022-10-12T11:12:21.586Z,38.04
2022-10-12T11:13:24.563Z,38.49
2022-10-12T11:14:27.571Z,38.37
2022-10-12T11:15:44.846Z,38.74
2022-10-12T11:16:48.670Z,39.34
2022-10-12T11:17:50.769Z,39.23
2022-10-12T11:18:56.303Z,39.36
2022-10-12T11:20:19.573Z,39.79
2022-10-12T11:21:22.507Z,40.21
2022-10-12T11:22:25.855Z,40.15
2022-10-12T11:23:28.798Z,39.93
2022-10-12T11:24:32.833Z,40.16
2022-10-12T11:25:38.806Z,40.05
2022-10-12T11:26:42.480Z,39.83
2022-10-12T11:27:43.933Z,40.12
2022-10-12T11:28:45.607Z,40.34
2022-10-12T11:29:58.193Z,40.69
2022-10-12T11:31:13.611Z,40.91
2022-10-12T11:32:33.762Z,41.06
2022-10-12T11:33:38.421Z,41.27
2022-10-12T11:34:45.711Z,41.12
2022-10-12T11:35:47.620Z,40.53
2022-10-12T11:37:17.801Z,40.40
2022-10-12T11:38:21.454Z,40.11
2022-10-12T11:39:28.603Z,40.58
2022-10-12T11:40:55.543Z,41.14
2022-10-12T11:42:16.823Z,40.81
2022-10-12T11:43:19.936Z,40.82
2022-10-12T11:44:30.389Z,40.96
2022-10-12T11:45:38.013Z,40.35
2022-10-12T11:46:45.418Z,40.93
2022-10-12T11:47:49.145Z,40.55
2022-10-12T11:48:52.396Z,40.43
2022-10-12T11:49:58.393Z,40.90
2022-10-12T11:51:03.889Z,41.13
2022-10-12T11:52:08.423Z,41.08
2022-10-12T11:53:18.728Z,41.19
2022-10-12T11:54:23.368Z,41.54
2022-10-12T11:55:30.779Z,40.72
2022-10-12T11:56:33.362Z,41.08
2022-10-12T11:57:35.654Z,41.28
2022-10-12T11:58:59.965Z,41.46
2022-10-12T12:00:05.777Z,41.16
2022-10-12T12:01:19.548Z,41.02
2022-10-12T12:02:22.346Z,41.48
2022-10-12T12:03:39.191Z,41.63
2022-10-12T12:04:44.500Z,41.86
2022-10-12T12:05:46.095Z,42.16
2022-10-12T12:07:00.352Z,42.06
2022-10-12T12:08:01.796Z,42.09
2022-10-12T12:09:03.292Z,42.02
2022-10-12T12:10:23.540Z,42.42
2022-10-12T12:11:25.759Z,42.16
2022-10-12T12:12:27.904Z,41.96
2022-10-12T12:13:29.470Z,41.91
2022-10-12T12:14:31.368Z,42.07
2022-10-12T12:15:32.822Z,42.45
2022-10-12T12:16:34.348Z,42.62
2022-10-12T12:17:35.948Z,42.79
2022-10-12T12:18:56.151Z,42.68
2022-10-12T12:19:58.434Z,42.27
2022-10-12T12:21:06.303Z,42.33
2022-10-12T12:22:13.429Z,42.34
2022-10-12T12:23:21.993Z,42.62
2022-10-12T12:24:23.446Z,42.78
2022-10-12T12:25:33.587Z,43.47
2022-10-12T12:26:35.064Z,43.62
2022-10-12T12:27:37.882Z,43.23
2022-10-12T12:28:43.018Z,42.39
2022-10-12T12:29:44.700Z,42.33
2022-10-12T12:31:15.616Z,43.03
2022-10-12T12:32:17.128Z,43.30
2022-10-12T12:33:25.652Z,43.45
2022-10-12T12:34:27.171Z,43.54
2022-10-12T12:35:40.912Z,43.36
2022-10-12T12:36:44.818Z,43.08
2022-10-12T12:37:46.371Z,43.48
2022-10-12T12:38:49.234Z,43.51
2022-10-12T12:39:54.161Z,42.87
2022-10-12T12:40:58.436Z,42.95
2022-10-12T12:42:02.327Z,42.73
2022-10-12T12:43:19.546Z,43.14
2022-10-12T12:44:42.757Z,43.35
2022-10-12T12:45:53.418Z,43.66
2022-10-12T12:46:54.887Z,43.71
2022-10-12T12:47:56.422Z,43.25
2022-10-12T12:48:58.613Z,43.21
2022-10-12T12:50:05.522Z,43.29
2022-10-12T12:51:19.075Z,43.17
2022-10-12T12:52:31.339Z,42.54
2022-10-12T12:53:32.818Z,42.24
2022-10-12T12:54:34.286Z,41.78
2022-10-12T12:55:40.920Z,42.28
2022-10-12T12:56:52.059Z,42.61
2022-10-12T12:57:53.484Z,42.01
2022-10-12T12:59:33.795Z,42.02
2022-10-12T13:00:39.177Z,41.55
2022-10-12T13:01:49.934Z,41.75
2022-10-12T13:03:07.981Z,41.91
2022-10-12T13:04:21.415Z,42.25
2022-10-12T13:05:41.667Z,43.04
2022-10-12T13:07:01.955Z,42.86
2022-10-12T13:08:06.471Z,43.02
2022-10-12T13:09:10.924Z,43.39
2022-10-12T13:10:12.371Z,42.99
2022-10-12T13:11:22.615Z,42.52
2022-10-12T13:12:36.452Z,42.19
2022-10-12T13:13:43.831Z,42.49
2022-10-12T13:14:54.260Z,42.72
2022-10-12T13:16:01.749Z,42.46
2022-10-12T13:17:31.939Z,42.50
2022-10-12T13:18:47.735Z,42.68
2022-10-12T13:19:50.103Z,42.67
2022-10-12T13:20:51.599Z,42.91
2022-10-12T13:21:53.097Z,42.98
2022-10-12T13:22:54.838Z,43.35
2022-10-12T13:24:07.925Z,43.21
2022-10-12T13:25:13.550Z,43.35
2022-10-12T13:26:17.413Z,42.87
2022-10-12T13:27:24.745Z,42.98
2022-10-12T13:28:27.544Z,43.50
2022-10-12T13:29:32.797Z,43.52
2022-10-12T13:30:46.880Z,43.24
2022-10-12T13:31:48.416Z,43.55
2022-10-12T13:33:04.699Z,43.36
2022-10-12T13:34:10.272Z,43.33
2022-10-12T13:35:13.317Z,43.68
2022-10-12T13:36:20.266Z,43.48
2022-10-12T13:37:29.406Z,43.41
2022-10-12T13:38:31.086Z,43.69
2022-10-12T13:39:38.741Z,43.62
2022-10-12T13:40:40.880Z,44.32
2022-10-12T13:41:42.359Z,44.29
2022-10-12T13:42:43.791Z,44.10
2022-10-12T13:43:46.062Z,44.27
2022-10-12T13:44:47.552Z,44.07
2022-10-12T13:45:49.099Z,44.07
2022-10-12T13:46:51.563Z,45.06
2022-10-12T13:47:53.115Z,45.14
2022-10-12T13:48:59.896Z,45.12
2022-10-12T13:50:01.672Z,45.28